createdAt,value
2023-08-17T00:00:09.897Z,17.40
2023-08-17T00:02:57.430Z,13.23
2023-08-17T00:05:25.185Z,13.18
2023-08-17T00:07:52.744Z,12.70
2023-08-17T00:10:20.163Z,12.23
2023-08-17T00:12:47.724Z,15.27
2023-08-17T00:15:15.027Z,16.80
2023-08-17T00:17:42.614Z,12.77
2023-08-17T00:20:10.945Z,12.68
2023-08-17T00:22:38.702Z,11.68
2023-08-17T00:25:06.609Z,10.60
2023-08-17T00:27:34.435Z,15.93
2023-08-17T00:30:01.811Z,14.98
2023-08-17T00:32:29.357Z,15.75
2023-08-17T00:34:56.670Z,13.05
2023-08-17T00:37:24.459Z,10.93
2023-08-17T00:39:53.126Z,12.93
2023-08-17T00:42:20.664Z,12.43
2023-08-17T00:44:48.049Z,12.65
2023-08-17T00:47:15.839Z,13.82
2023-08-17T00:49:43.399Z,16.10
2023-08-17T00:52:11.596Z,12.40
2023-08-17T00:54:39.106Z,14.68
2023-08-17T00:57:07.811Z,12.38
2023-08-17T00:59:37.096Z,11.13
2023-08-17T01:02:06.082Z,17.25
2023-08-17T01:04:33.622Z,14.93
2023-08-17T01:07:01.542Z,11.80
2023-08-17T01:09:29.339Z,14.18
2023-08-17T01:12:25.643Z,10.82
2023-08-17T01:14:59.036Z,11.50
2023-08-17T01:17:32.804Z,12.10
2023-08-17T01:20:05.171Z,11.88
2023-08-17T01:22:34.441Z,13.82
2023-08-17T01:25:01.791Z,13.80
2023-08-17T01:27:40.905Z,11.48
2023-08-17T01:30:10.824Z,13.48
2023-08-17T01:33:00.891Z,13.68
2023-08-17T01:35:48.985Z,11.20
2023-08-17T01:38:20.174Z,11.73
2023-08-17T01:40:49.119Z,11.27
2023-08-17T01:43:17.781Z,12.45
2023-08-17T01:45:45.241Z,13.23
2023-08-17T01:48:12.878Z,13.35
2023-08-17T01:50:40.538Z,13.30
2023-08-17T01:53:08.260Z,13.77
2023-08-17T01:55:36.521Z,13.38
2023-08-17T01:58:04.371Z,10.52
2023-08-17T02:00:31.662Z,13.02
2023-08-17T02:02:59.277Z,11.55
2023-08-17T02:05:29.363Z,14.63
2023-08-17T02:07:57.124Z,10.65
2023-08-17T02:10:24.473Z,12.30
2023-08-17T02:12:58.872Z,13.63
2023-08-17T02:15:29.345Z,9.88
2023-08-17T02:18:00.776Z,13.93
2023-08-17T02:20:28.141Z,10.90
2023-08-17T02:22:55.812Z,10.15
2023-08-17T02:25:23.411Z,11.40
2023-08-17T02:27:51.549Z,13.23
2023-08-17T02:30:19.477Z,10.90
2023-08-17T02:32:47.139Z,14.80
2023-08-17T02:35:14.406Z,11.18
2023-08-17T02:37:42.024Z,13.50
2023-08-17T02:40:09.792Z,16.67
2023-08-17T02:42:37.498Z,15.55
2023-08-17T02:45:05.116Z,15.73
2023-08-17T02:47:32.731Z,13.43
2023-08-17T02:50:00.209Z,14.88
2023-08-17T02:52:27.749Z,15.40
2023-08-17T02:54:55.137Z,12.75
2023-08-17T02:57:22.847Z,11.88
2023-08-17T02:59:50.154Z,12.02
2023-08-17T03:02:17.719Z,9.50
2023-08-17T03:04:44.957Z,12.35
2023-08-17T03:07:12.572Z,9.98
2023-08-17T03:09:39.925Z,12.43
2023-08-17T03:12:07.669Z,14.45
2023-08-17T03:14:34.999Z,10.77
2023-08-17T03:17:02.666Z,13.18
2023-08-17T03:19:29.959Z,11.30
2023-08-17T03:21:57.518Z,9.05
2023-08-17T03:24:24.804Z,9.38
2023-08-17T03:26:52.820Z,11.80
2023-08-17T03:29:20.187Z,10.82
2023-08-17T03:31:47.794Z,10.00
2023-08-17T03:34:15.123Z,8.50
2023-08-17T03:36:42.697Z,9.07
2023-08-17T03:39:10.039Z,12.57
2023-08-17T03:41:37.865Z,9.32
2023-08-17T03:44:07.012Z,14.23
2023-08-17T03:46:34.890Z,11.75
2023-08-17T03:49:02.219Z,10.50
2023-08-17T03:51:29.780Z,13.23
2023-08-17T03:53:57.040Z,8.88
2023-08-17T03:56:24.652Z,11.02
2023-08-17T03:58:54.016Z,12.85
2023-08-17T04:01:21.674Z,14.07
2023-08-17T04:03:49.022Z,8.55
2023-08-17T04:06:16.840Z,9.15
2023-08-17T04:08:44.186Z,11.93
2023-08-17T04:11:11.826Z,12.75
2023-08-17T04:13:44.164Z,12.77
2023-08-17T04:16:11.811Z,12.27
2023-08-17T04:18:39.159Z,10.80
2023-08-17T04:21:06.809Z,10.88
2023-08-17T04:23:34.099Z,13.73
2023-08-17T04:26:01.637Z,13.70
2023-08-17T04:28:28.982Z,10.98
2023-08-17T04:30:56.521Z,11.18
2023-08-17T04:33:23.827Z,11.73
2023-08-17T04:35:51.556Z,11.55
2023-08-17T04:38:18.864Z,11.38
2023-08-17T04:40:46.476Z,8.77
2023-08-17T04:43:14.120Z,13.27
2023-08-17T04:45:41.803Z,15.10
2023-08-17T04:48:09.368Z,13.38
2023-08-17T04:50:37.385Z,13.38
2023-08-17T04:53:04.737Z,12.25
2023-08-17T04:55:35.903Z,11.52
2023-08-17T04:58:03.317Z,12.95
2023-08-17T05:00:31.752Z,14.20
2023-08-17T05:02:59.128Z,13.43
2023-08-17T05:05:26.888Z,19.85
2023-08-17T05:07:54.359Z,15.25
2023-08-17T05:10:21.933Z,13.80
2023-08-17T05:12:49.323Z,13.00
2023-08-17T05:15:17.048Z,12.27
2023-08-17T05:17:44.357Z,11.32
2023-08-17T05:20:13.904Z,16.02
2023-08-17T05:22:41.369Z,12.98
2023-08-17T05:25:09.282Z,16.73
2023-08-17T05:27:36.562Z,15.77
2023-08-17T05:30:04.682Z,13.48
2023-08-17T05:32:32.066Z,17.25
2023-08-17T05:34:59.620Z,15.13
2023-08-17T05:37:27.624Z,15.90
2023-08-17T05:39:55.305Z,14.05
2023-08-17T05:42:22.602Z,11.98
2023-08-17T05:44:50.328Z,16.13
2023-08-17T05:47:20.145Z,13.63
2023-08-17T05:49:47.683Z,18.88
2023-08-17T05:52:14.968Z,18.80
2023-08-17T05:54:43.641Z,17.40
2023-08-17T05:57:11.791Z,15.60
2023-08-17T05:59:39.333Z,14.32
2023-08-17T06:02:06.704Z,17.25
2023-08-17T06:04:34.380Z,14.88
2023-08-17T06:07:01.843Z,17.88
2023-08-17T06:09:29.394Z,17.45
2023-08-17T06:11:56.665Z,17.05
2023-08-17T06:14:24.432Z,10.32
2023-08-17T06:16:51.729Z,10.40
2023-08-17T06:19:19.372Z,16.92
2023-08-17T06:21:46.668Z,14.40
2023-08-17T06:24:14.302Z,16.70
2023-08-17T06:26:41.584Z,16.17
2023-08-17T06:29:09.137Z,14.85
2023-08-17T06:31:36.571Z,17.45
2023-08-17T06:34:04.968Z,17.55
2023-08-17T06:36:33.684Z,16.40
2023-08-17T06:39:01.544Z,14.13
2023-08-17T06:41:28.868Z,13.00
2023-08-17T06:43:56.413Z,13.07
2023-08-17T06:46:25.609Z,16.83
2023-08-17T06:48:53.224Z,16.73
2023-08-17T06:51:20.523Z,20.10
2023-08-17T06:53:48.056Z,19.00
2023-08-17T06:56:15.340Z,18.40
2023-08-17T06:58:42.954Z,19.92
2023-08-17T07:01:10.904Z,16.67
2023-08-17T07:03:39.427Z,16.67
2023-08-17T07:06:06.941Z,17.85
2023-08-17T07:08:34.507Z,21.30
2023-08-17T07:11:01.820Z,17.83
2023-08-17T07:13:29.568Z,19.45
2023-08-17T07:15:57.051Z,17.15
2023-08-17T07:18:24.973Z,19.17
2023-08-17T07:20:52.240Z,16.83
2023-08-17T07:23:19.835Z,18.85
2023-08-17T07:25:47.272Z,19.95
2023-08-17T07:28:16.635Z,13.65
2023-08-17T07:30:43.941Z,18.70
2023-08-17T07:33:11.597Z,22.45
2023-08-17T07:35:38.981Z,18.25
2023-08-17T07:38:09.418Z,17.05
2023-08-17T07:40:37.324Z,25.80
2023-08-17T07:43:05.514Z,17.73
2023-08-17T07:45:32.829Z,19.42
2023-08-17T07:48:00.492Z,15.93
2023-08-17T07:50:27.780Z,17.55
2023-08-17T07:52:55.281Z,13.52
2023-08-17T07:55:22.663Z,16.02
2023-08-17T07:57:50.212Z,15.45
2023-08-17T08:00:17.813Z,21.48
2023-08-17T08:02:45.793Z,15.82
2023-08-17T08:05:15.224Z,24.65
2023-08-17T08:07:43.506Z,18.83
2023-08-17T08:10:10.859Z,20.67
2023-08-17T08:12:38.613Z,19.75
2023-08-17T08:15:06.340Z,19.10
2023-08-17T08:17:34.158Z,24.38
2023-08-17T08:20:01.726Z,19.95
2023-08-17T08:22:29.286Z,18.35
2023-08-17T08:24:56.775Z,16.90
2023-08-17T08:27:24.568Z,19.02
2023-08-17T08:29:52.044Z,22.38
2023-08-17T08:32:19.578Z,16.63
2023-08-17T08:34:47.120Z,18.77
2023-08-17T08:37:15.100Z,23.17
2023-08-17T08:39:53.026Z,18.95
2023-08-17T08:42:21.874Z,15.52
2023-08-17T08:44:50.648Z,17.50
2023-08-17T08:47:19.106Z,20.15
2023-08-17T08:50:03.801Z,21.40
2023-08-17T08:52:35.772Z,17.95
2023-08-17T08:55:13.367Z,19.48
2023-08-17T08:57:42.537Z,16.30
2023-08-17T09:00:10.656Z,17.05
2023-08-17T09:02:38.266Z,15.65
2023-08-17T09:05:11.335Z,16.55
2023-08-17T09:07:42.382Z,17.92
2023-08-17T09:10:11.389Z,17.33
2023-08-17T09:12:41.596Z,11.40
2023-08-17T09:15:10.215Z,17.70
2023-08-17T09:17:38.143Z,16.23
2023-08-17T09:20:08.341Z,16.73
2023-08-17T09:22:44.826Z,14.20
2023-08-17T09:25:12.387Z,17.00
2023-08-17T09:27:40.347Z,18.23
2023-08-17T09:30:10.289Z,11.40
2023-08-17T09:32:38.113Z,17.35
2023-08-17T09:35:06.730Z,18.02
2023-08-17T09:37:34.964Z,14.68
2023-08-17T09:40:02.501Z,14.00
2023-08-17T09:42:30.248Z,15.85
2023-08-17T09:44:58.937Z,16.58
2023-08-17T09:47:27.721Z,14.95
2023-08-17T09:49:55.936Z,18.65
2023-08-17T09:52:25.271Z,15.75
2023-08-17T09:54:55.625Z,12.85
2023-08-17T09:57:23.939Z,18.63
2023-08-17T09:59:54.780Z,17.65
2023-08-17T10:02:27.272Z,17.42
2023-08-17T10:04:55.200Z,16.35
2023-08-17T10:07:33.372Z,17.42
2023-08-17T10:10:05.143Z,12.93
2023-08-17T10:12:54.348Z,14.15
2023-08-17T10:15:25.296Z,15.65
2023-08-17T10:18:40.852Z,18.50
2023-08-17T10:21:18.692Z,16.08
2023-08-17T10:23:47.214Z,16.98
2023-08-17T10:26:14.595Z,16.83
2023-08-17T10:28:42.905Z,11.30
2023-08-17T10:31:11.475Z,15.77
2023-08-17T10:33:43.092Z,14.60
2023-08-17T10:36:11.582Z,15.90
2023-08-17T10:38:39.227Z,12.63
2023-08-17T10:41:18.564Z,15.23
2023-08-17T10:43:59.677Z,17.10
2023-08-17T10:46:35.080Z,20.65
2023-08-17T10:49:09.296Z,19.80
2023-08-17T10:51:36.811Z,18.27
2023-08-17T10:54:05.417Z,18.08
2023-08-17T10:56:33.889Z,21.33
2023-08-17T10:59:02.951Z,15.38
2023-08-17T11:01:36.582Z,16.83
2023-08-17T11:04:33.629Z,17.20
2023-08-17T11:07:05.144Z,19.83
2023-08-17T11:09:36.057Z,17.98
2023-08-17T11:12:03.758Z,16.33
2023-08-17T11:14:34.996Z,20.48
2023-08-17T11:17:06.477Z,18.10
2023-08-17T11:19:34.363Z,16.88
2023-08-17T11:22:01.998Z,17.42
2023-08-17T11:24:29.755Z,11.15
2023-08-17T11:26:57.874Z,16.48
2023-08-17T11:29:26.345Z,21.27
2023-08-17T11:31:54.131Z,21.17
2023-08-17T11:34:21.795Z,41.78
2023-08-17T11:36:49.088Z,35.80
2023-08-17T11:39:16.737Z,28.35
2023-08-17T11:41:44.387Z,21.75
2023-08-17T11:44:12.312Z,26.38
2023-08-17T11:46:39.720Z,28.10
2023-08-17T11:49:07.881Z,27.48
2023-08-17T11:51:36.158Z,20.30
2023-08-17T11:54:05.950Z,23.63
2023-08-17T11:56:33.254Z,27.23
2023-08-17T11:59:10.132Z,19.23
2023-08-17T12:01:37.730Z,19.02
2023-08-17T12:04:06.709Z,26.77
2023-08-17T12:06:34.281Z,17.27
2023-08-17T12:09:01.970Z,23.75
2023-08-17T12:11:30.192Z,18.67
2023-08-17T12:13:58.835Z,20.52
2023-08-17T12:16:26.168Z,15.23
2023-08-17T12:18:54.386Z,16.35
2023-08-17T12:21:26.282Z,14.93
2023-08-17T12:23:54.136Z,21.67
2023-08-17T12:26:22.500Z,16.33
2023-08-17T12:28:50.663Z,15.63
2023-08-17T12:31:22.873Z,19.13
2023-08-17T12:33:51.576Z,16.60
2023-08-17T12:36:19.841Z,15.30
2023-08-17T12:38:49.059Z,15.02
2023-08-17T12:41:17.231Z,11.10
2023-08-17T12:43:44.806Z,10.93
2023-08-17T12:46:12.214Z,11.20
2023-08-17T12:48:40.515Z,10.35
2023-08-17T12:51:07.869Z,11.70
2023-08-17T12:53:35.523Z,15.60
2023-08-17T12:56:02.979Z,11.88
2023-08-17T12:58:30.620Z,17.77
2023-08-17T13:00:58.040Z,11.30
2023-08-17T13:03:25.735Z,10.52
2023-08-17T13:05:53.159Z,16.67
2023-08-17T13:08:20.881Z,11.68
2023-08-17T13:10:48.238Z,12.13
2023-08-17T13:13:15.873Z,10.95
2023-08-17T13:15:43.225Z,16.55
2023-08-17T13:18:11.048Z,10.95
2023-08-17T13:20:39.601Z,8.27
2023-08-17T13:23:07.468Z,12.65
2023-08-17T13:25:35.057Z,12.38
2023-08-17T13:28:02.752Z,9.40
2023-08-17T13:30:30.160Z,9.18
2023-08-17T13:32:58.080Z,11.63
2023-08-17T13:35:25.738Z,9.35
2023-08-17T13:37:54.723Z,9.55
2023-08-17T13:40:22.656Z,10.45
2023-08-17T13:42:50.363Z,10.60
2023-08-17T13:45:18.142Z,7.10
2023-08-17T13:47:45.770Z,11.25
2023-08-17T13:50:13.152Z,6.93
2023-08-17T13:52:41.258Z,10.35
2023-08-17T13:55:09.102Z,10.50
2023-08-17T13:57:36.780Z,10.23
2023-08-17T14:00:05.196Z,9.20
2023-08-17T14:02:33.231Z,8.85
2023-08-17T14:05:00.852Z,10.63
2023-08-17T14:07:28.794Z,8.27
2023-08-17T14:10:07.436Z,10.32
2023-08-17T14:12:38.392Z,5.85
2023-08-17T14:15:06.473Z,8.88
2023-08-17T14:17:34.235Z,8.43
2023-08-17T14:20:01.560Z,7.32
2023-08-17T14:22:29.355Z,9.40
2023-08-17T14:24:56.872Z,7.45
2023-08-17T14:27:24.707Z,7.05
2023-08-17T14:29:52.523Z,7.18
2023-08-17T14:32:20.090Z,8.43
2023-08-17T14:34:47.381Z,6.78
2023-08-17T14:37:15.162Z,7.50
2023-08-17T14:39:42.658Z,8.65
2023-08-17T14:42:10.306Z,6.63
2023-08-17T14:44:37.668Z,6.72
2023-08-17T14:47:05.464Z,6.80
2023-08-17T14:49:32.922Z,7.97
2023-08-17T14:52:00.464Z,7.22
2023-08-17T14:54:27.761Z,5.80
2023-08-17T14:56:57.715Z,6.55
2023-08-17T14:59:25.220Z,6.38
2023-08-17T15:01:53.851Z,6.38
2023-08-17T15:04:25.876Z,5.15
2023-08-17T15:06:53.866Z,6.70
2023-08-17T15:09:21.532Z,7.07
2023-08-17T15:11:51.271Z,7.10
2023-08-17T15:14:18.667Z,6.68
2023-08-17T15:16:46.214Z,9.60
2023-08-17T15:19:15.469Z,5.00
2023-08-17T15:21:43.350Z,5.15
2023-08-17T15:24:10.942Z,7.15
2023-08-17T15:26:38.569Z,8.30
2023-08-17T15:29:05.911Z,7.93
2023-08-17T15:31:33.582Z,5.25
2023-08-17T15:34:00.957Z,5.10
2023-08-17T15:36:28.578Z,5.18
2023-08-17T15:38:55.850Z,6.82
2023-08-17T15:41:23.467Z,6.10
2023-08-17T15:43:50.836Z,7.10
2023-08-17T15:46:19.130Z,6.82
2023-08-17T15:48:46.579Z,7.18
2023-08-17T15:51:14.286Z,5.22
2023-08-17T15:53:44.465Z,5.63
2023-08-17T15:56:12.288Z,6.30
2023-08-17T15:58:39.638Z,4.53
2023-08-17T16:01:07.399Z,6.03
2023-08-17T16:03:37.256Z,5.60
2023-08-17T16:06:04.960Z,7.38
2023-08-17T16:08:47.297Z,5.18
2023-08-17T16:11:16.431Z,6.60
2023-08-17T16:13:46.013Z,5.20
2023-08-17T16:16:14.346Z,5.95
2023-08-17T16:18:41.973Z,5.75
2023-08-17T16:23:39.799Z,4.93
2023-08-17T16:26:07.372Z,6.22
2023-08-17T16:28:34.674Z,4.53
2023-08-17T16:31:05.269Z,5.55
2023-08-17T16:33:33.404Z,7.63
2023-08-17T16:36:01.101Z,5.10
2023-08-17T16:38:28.453Z,9.18
2023-08-17T16:40:56.094Z,5.20
2023-08-17T16:43:23.707Z,6.35
2023-08-17T16:45:51.550Z,8.27
2023-08-17T16:50:51.946Z,7.60
2023-08-17T16:53:19.401Z,6.40
2023-08-17T16:55:54.072Z,7.40
2023-08-17T16:58:22.593Z,7.07
2023-08-17T17:00:50.557Z,6.93
2023-08-17T17:03:17.963Z,8.80
2023-08-17T17:05:45.638Z,6.78
2023-08-17T17:08:12.960Z,8.27
2023-08-17T17:10:40.521Z,6.25
2023-08-17T17:13:07.994Z,8.20
2023-08-17T17:15:35.634Z,7.63
2023-08-17T17:18:03.198Z,5.50
2023-08-17T17:20:32.145Z,8.88
2023-08-17T17:22:59.520Z,9.35
2023-08-17T17:25:27.087Z,8.23
2023-08-17T17:27:54.859Z,5.10
2023-08-17T17:30:22.456Z,8.43
2023-08-17T17:32:50.204Z,6.63
2023-08-17T17:35:17.793Z,7.10
2023-08-17T17:37:45.181Z,8.68
2023-08-17T17:40:12.993Z,6.45
2023-08-17T17:42:40.454Z,8.35
2023-08-17T17:45:08.348Z,5.88
2023-08-17T17:47:36.093Z,6.90
2023-08-17T17:50:05.915Z,7.45
2023-08-17T17:52:33.719Z,9.65
2023-08-17T17:55:01.673Z,7.60
2023-08-17T17:57:29.451Z,7.60
2023-08-17T17:59:57.599Z,9.43
2023-08-17T18:02:27.229Z,5.55
2023-08-17T18:04:54.992Z,7.60
2023-08-17T18:07:22.322Z,8.23
2023-08-17T18:09:49.987Z,5.00
2023-08-17T18:12:17.321Z,6.25
2023-08-17T18:14:45.142Z,6.63
2023-08-17T18:17:12.485Z,9.70
2023-08-17T18:19:40.078Z,7.53
2023-08-17T18:22:07.529Z,6.38
2023-08-17T18:24:35.094Z,12.88
2023-08-17T18:27:02.375Z,9.65
2023-08-17T18:29:29.959Z,6.45
2023-08-17T18:31:57.201Z,7.30
2023-08-17T18:34:25.010Z,9.88
2023-08-17T18:36:52.342Z,5.50
2023-08-17T18:39:19.973Z,6.22
2023-08-17T18:41:47.224Z,7.55
2023-08-17T18:44:14.783Z,5.63
2023-08-17T18:46:42.114Z,7.30
2023-08-17T18:49:09.747Z,6.80
2023-08-17T18:51:37.104Z,5.82
2023-08-17T18:54:05.130Z,5.95
2023-08-17T18:56:32.545Z,5.00
2023-08-17T18:59:00.103Z,4.35
2023-08-17T19:01:27.443Z,5.57
2023-08-17T19:03:55.303Z,8.23
2023-08-17T19:06:23.019Z,6.93
2023-08-17T19:08:50.581Z,8.05
2023-08-17T19:11:17.888Z,5.90
2023-08-17T19:13:45.472Z,5.57
2023-08-17T19:16:12.890Z,6.13
2023-08-17T19:18:40.490Z,4.43
2023-08-17T19:21:08.089Z,5.93
2023-08-17T19:23:35.893Z,6.55
2023-08-17T19:26:03.292Z,5.20
2023-08-17T19:28:30.902Z,5.15
2023-08-17T19:30:58.556Z,6.80
2023-08-17T19:33:26.158Z,6.30
2023-08-17T19:35:53.580Z,6.57
2023-08-17T19:38:22.876Z,6.38
2023-08-17T19:40:50.289Z,5.93
2023-08-17T19:43:18.331Z,7.07
2023-08-17T19:45:45.697Z,9.68
2023-08-17T19:48:13.352Z,6.88
2023-08-17T19:50:41.907Z,5.07
2023-08-17T19:53:09.738Z,7.47
2023-08-17T19:55:37.071Z,5.93
2023-08-17T19:58:04.987Z,6.22
2023-08-17T20:00:32.243Z,5.90
2023-08-17T20:03:00.094Z,5.60
2023-08-17T20:05:28.066Z,6.43
2023-08-17T20:07:55.711Z,8.40
2023-08-17T20:10:23.019Z,5.53
2023-08-17T20:12:50.636Z,7.28
2023-08-17T20:15:17.910Z,10.15
2023-08-17T20:17:45.603Z,6.32
2023-08-17T20:20:16.581Z,6.90
2023-08-17T20:22:44.945Z,7.78
2023-08-17T20:25:13.872Z,6.13
2023-08-17T20:27:43.383Z,7.85
2023-08-17T20:30:11.093Z,8.30
2023-08-17T20:32:42.162Z,8.70
2023-08-17T20:35:10.056Z,10.73
2023-08-17T20:37:38.464Z,7.95
2023-08-17T20:40:07.130Z,8.68
2023-08-17T20:42:34.757Z,10.00
2023-08-17T20:45:02.025Z,9.45
2023-08-17T20:47:29.972Z,8.55
2023-08-17T20:49:59.587Z,7.85
2023-08-17T20:52:27.213Z,7.43
2023-08-17T20:54:54.562Z,5.00
2023-08-17T20:57:22.326Z,7.25
2023-08-17T20:59:50.209Z,7.68
2023-08-17T21:02:17.729Z,7.55
2023-08-17T21:04:45.014Z,7.55
2023-08-17T21:07:12.701Z,5.03
2023-08-17T21:09:40.679Z,7.20
2023-08-17T21:12:08.330Z,6.28
2023-08-17T21:14:35.617Z,6.88
2023-08-17T21:17:03.212Z,11.02
2023-08-17T21:19:30.509Z,6.47
2023-08-17T21:21:58.080Z,6.68
2023-08-17T21:24:25.386Z,5.72
2023-08-17T21:26:52.915Z,7.22
2023-08-17T21:29:20.309Z,5.78
2023-08-17T21:31:50.527Z,6.53
2023-08-17T21:34:20.731Z,6.18
2023-08-17T21:36:48.453Z,5.43
2023-08-17T21:39:16.033Z,8.25
2023-08-17T21:41:43.670Z,6.32
2023-08-17T21:44:11.078Z,5.68
2023-08-17T21:46:40.780Z,6.25
2023-08-17T21:49:08.115Z,5.65
2023-08-17T21:51:35.710Z,4.80
2023-08-17T21:54:03.224Z,5.63
2023-08-17T21:56:30.827Z,6.07
2023-08-17T21:58:58.581Z,5.38
2023-08-17T22:01:26.138Z,4.80
2023-08-17T22:03:53.520Z,5.88
2023-08-17T22:06:21.745Z,5.05
2023-08-17T22:08:49.224Z,5.50
2023-08-17T22:11:16.849Z,5.00
2023-08-17T22:13:44.161Z,5.00
2023-08-17T22:16:11.712Z,4.53
2023-08-17T22:18:39.051Z,3.92
2023-08-17T22:21:06.709Z,4.82
2023-08-17T22:23:34.481Z,3.72
2023-08-17T22:26:02.047Z,4.43
2023-08-17T22:28:29.348Z,5.07
2023-08-17T22:31:07.617Z,5.22
2023-08-17T22:33:35.795Z,4.30
2023-08-17T22:36:04.320Z,5.78
2023-08-17T22:38:31.654Z,4.72
2023-08-17T22:40:59.203Z,4.20
2023-08-17T22:43:26.534Z,5.03
2023-08-17T22:45:54.156Z,6.40
2023-08-17T22:48:21.469Z,6.13
2023-08-17T22:50:49.146Z,3.88
2023-08-17T22:53:16.563Z,4.93
2023-08-17T22:55:44.104Z,5.03
2023-08-17T22:58:11.404Z,4.80
2023-08-17T23:00:40.178Z,5.07
2023-08-17T23:03:07.628Z,3.80
2023-08-17T23:05:35.362Z,5.38
2023-08-17T23:08:02.691Z,4.68
2023-08-17T23:10:30.384Z,4.50
2023-08-17T23:12:57.612Z,4.05
2023-08-17T23:15:25.356Z,4.60
2023-08-17T23:17:52.864Z,3.65
2023-08-17T23:20:20.590Z,4.00
2023-08-17T23:22:47.846Z,4.45
2023-08-17T23:25:15.624Z,3.50
2023-08-17T23:27:43.055Z,4.82
2023-08-17T23:30:12.271Z,4.18
2023-08-17T23:32:39.656Z,5.97
2023-08-17T23:35:07.896Z,4.90
2023-08-17T23:37:35.267Z,4.80
2023-08-17T23:40:03.895Z,4.00
2023-08-17T23:42:31.424Z,4.85
2023-08-17T23:44:59.086Z,4.82
2023-08-17T23:47:26.537Z,3.55
2023-08-17T23:49:54.351Z,4.15
2023-08-17T23:52:22.531Z,4.70
2023-08-17T23:54:50.056Z,6.13
2023-08-17T23:57:17.492Z,4.25
2023-08-17T23:59:45.377Z,4.90
